createdAt,value
2017-09-21T00:02:17.548Z,10.13
2017-09-21T00:04:44.709Z,7.83
2017-09-21T00:07:11.142Z,7.70
2017-09-21T00:09:37.578Z,7.97
2017-09-21T00:12:04.013Z,9.30
2017-09-21T00:14:30.537Z,9.23
2017-09-21T00:16:56.988Z,8.30
2017-09-21T00:19:23.423Z,8.00
2017-09-21T00:21:50.564Z,8.00
2017-09-21T00:24:17.111Z,7.47
2017-09-21T00:26:43.544Z,7.50
2017-09-21T00:29:09.979Z,7.50
2017-09-21T00:31:36.413Z,7.40
2017-09-21T00:34:02.958Z,7.97
2017-09-21T00:36:29.387Z,7.90
2017-09-21T00:38:56.540Z,8.20
2017-09-21T00:41:22.974Z,8.90
2017-09-21T00:43:49.512Z,8.90
2017-09-21T00:46:15.946Z,9.03
2017-09-21T00:48:42.379Z,9.00
2017-09-21T00:51:08.762Z,9.40
2017-09-21T00:53:35.249Z,9.77
2017-09-21T00:56:02.401Z,9.40
2017-09-21T00:58:28.776Z,11.03
2017-09-21T01:00:55.220Z,9.77
2017-09-21T01:03:21.706Z,9.40
2017-09-21T01:05:48.141Z,9.87
2017-09-21T01:08:14.575Z,9.97
2017-09-21T01:10:40.991Z,10.67
2017-09-21T01:13:08.162Z,12.80
2017-09-21T01:15:34.598Z,10.83
2017-09-21T01:18:01.032Z,10.60
2017-09-21T01:20:27.570Z,9.93
2017-09-21T01:22:54.108Z,10.37
2017-09-21T01:25:20.541Z,11.97
2017-09-21T01:27:46.976Z,11.50
2017-09-21T01:30:14.131Z,10.80
2017-09-21T01:32:40.668Z,11.13
2017-09-21T01:35:07.112Z,14.93
2017-09-21T01:37:33.535Z,10.47
2017-09-21T01:39:59.971Z,12.73
2017-09-21T01:42:26.433Z,11.13
2017-09-21T01:44:52.839Z,10.50
2017-09-21T01:47:19.991Z,12.23
2017-09-21T01:49:46.427Z,10.60
2017-09-21T01:52:12.862Z,12.77
2017-09-21T01:54:39.243Z,11.90
2017-09-21T01:57:05.629Z,12.73
2017-09-21T01:59:32.065Z,13.17
2017-09-21T02:01:58.499Z,11.27
2017-09-21T02:04:25.651Z,15.63
2017-09-21T02:06:52.045Z,12.00
2017-09-21T02:09:18.521Z,12.80
2017-09-21T02:11:44.955Z,12.43
2017-09-21T02:14:11.493Z,17.10
2017-09-21T02:16:37.928Z,14.63
2017-09-21T02:19:04.370Z,14.83
2017-09-21T02:21:30.799Z,16.53
2017-09-21T02:23:57.234Z,11.33
2017-09-21T02:26:23.761Z,11.90
2017-09-21T02:28:50.823Z,13.00
2017-09-21T02:31:17.200Z,13.27
2017-09-21T02:33:43.692Z,13.20
2017-09-21T02:36:10.080Z,12.30
2017-09-21T02:38:36.551Z,11.67
2017-09-21T02:41:02.995Z,13.00
2017-09-21T02:43:29.535Z,13.07
2017-09-21T02:45:56.684Z,11.17
2017-09-21T02:48:23.221Z,11.90
2017-09-21T02:50:49.655Z,12.07
2017-09-21T02:53:16.192Z,11.30
2017-09-21T02:55:42.627Z,10.57
2017-09-21T02:58:09.061Z,11.00
2017-09-21T03:00:35.498Z,13.47
2017-09-21T03:03:02.751Z,13.40
2017-09-21T03:05:29.154Z,12.53
2017-09-21T03:07:55.611Z,11.90
2017-09-21T03:10:22.056Z,12.73
2017-09-21T03:12:48.593Z,10.80
2017-09-21T03:15:15.015Z,12.30
2017-09-21T03:17:41.462Z,13.10
2017-09-21T03:20:08.615Z,12.17
2017-09-21T03:22:35.153Z,11.40
2017-09-21T03:25:01.587Z,12.33
2017-09-21T03:27:28.022Z,13.47
2017-09-21T03:29:54.457Z,10.47
2017-09-21T03:32:20.891Z,16.20
2017-09-21T03:34:47.280Z,11.90
2017-09-21T03:37:14.569Z,12.30
2017-09-21T03:39:41.015Z,11.47
2017-09-21T03:42:07.450Z,14.00
2017-09-21T03:44:33.988Z,12.50
2017-09-21T03:47:00.423Z,11.23
2017-09-21T03:49:26.857Z,13.57
2017-09-21T03:51:53.243Z,15.23
2017-09-21T03:54:20.341Z,12.23
2017-09-21T03:56:46.777Z,11.67
2017-09-21T03:59:13.213Z,12.40
2017-09-21T04:01:39.647Z,12.00
2017-09-21T04:04:06.184Z,11.47
2017-09-21T04:06:32.618Z,11.27
2017-09-21T04:08:59.056Z,12.53
2017-09-21T04:11:26.310Z,16.43
2017-09-21T04:13:52.845Z,13.57
2017-09-21T04:16:19.241Z,12.93
2017-09-21T04:18:45.717Z,12.40
2017-09-21T04:21:12.150Z,15.00
2017-09-21T04:23:38.687Z,12.77
2017-09-21T04:26:05.122Z,15.30
2017-09-21T04:28:32.375Z,12.10
2017-09-21T04:30:58.810Z,15.10
2017-09-21T04:33:25.348Z,13.73
2017-09-21T04:35:51.782Z,12.57
2017-09-21T04:38:18.320Z,14.00
2017-09-21T04:40:44.755Z,16.70
2017-09-21T04:43:11.254Z,14.70
2017-09-21T04:45:38.337Z,15.47
2017-09-21T04:48:04.777Z,15.27
2017-09-21T04:53:03.788Z,14.70
2017-09-21T04:55:30.280Z,15.87
2017-09-21T04:57:56.749Z,18.00
2017-09-21T05:00:23.199Z,19.23
2017-09-21T05:02:49.633Z,16.93
2017-09-21T05:05:16.068Z,16.37
2017-09-21T05:07:42.604Z,22.80
2017-09-21T05:10:09.040Z,22.57
2017-09-21T05:12:35.577Z,13.10
2017-09-21T05:15:02.013Z,16.90
2017-09-21T05:17:28.446Z,12.67
2017-09-21T05:19:54.985Z,15.37
2017-09-21T05:22:21.418Z,18.27
2017-09-21T05:24:47.853Z,17.73
2017-09-21T05:27:14.288Z,19.27
2017-09-21T05:29:41.543Z,13.43
2017-09-21T05:32:07.978Z,23.63
2017-09-21T05:34:34.512Z,19.10
2017-09-21T05:37:00.950Z,19.13
2017-09-21T05:39:27.384Z,13.30
2017-09-21T05:41:53.820Z,18.80
2017-09-21T05:44:20.255Z,15.70
2017-09-21T05:46:47.508Z,11.20
2017-09-21T05:49:13.944Z,12.20
2017-09-21T05:51:40.378Z,15.03
2017-09-21T05:54:07.326Z,19.60
2017-09-21T05:56:33.762Z,11.30
2017-09-21T05:59:00.195Z,11.40
2017-09-21T06:01:26.636Z,11.50
2017-09-21T06:03:53.167Z,11.33
2017-09-21T06:06:19.604Z,11.90
2017-09-21T06:08:46.039Z,16.83
2017-09-21T06:11:12.574Z,16.37
2017-09-21T06:13:39.068Z,11.93
2017-09-21T06:16:05.547Z,19.73
2017-09-21T06:18:32.016Z,14.33
2017-09-21T06:20:58.524Z,13.03
2017-09-21T06:23:25.057Z,15.00
2017-09-21T06:25:51.492Z,15.63
2017-09-21T06:28:17.939Z,18.40
2017-09-21T06:30:45.078Z,12.53
2017-09-21T06:33:11.615Z,17.47
2017-09-21T06:35:38.050Z,11.17
2017-09-21T06:38:04.587Z,10.03
2017-09-21T06:40:31.024Z,11.53
2017-09-21T06:42:57.553Z,8.97
2017-09-21T06:45:23.945Z,10.67
2017-09-21T06:47:50.413Z,10.20
2017-09-21T06:50:16.864Z,11.10
2017-09-21T06:52:43.405Z,11.50
2017-09-21T06:55:10.457Z,10.07
2017-09-21T06:57:37.256Z,11.83
2017-09-21T07:00:03.731Z,9.90
2017-09-21T07:02:30.165Z,10.67
2017-09-21T07:04:56.600Z,12.70
2017-09-21T07:07:23.089Z,10.23
2017-09-21T07:09:49.575Z,9.90
2017-09-21T07:12:16.009Z,10.50
2017-09-21T07:14:42.551Z,11.10
2017-09-21T07:17:08.980Z,10.23
2017-09-21T07:19:35.415Z,10.20
2017-09-21T07:22:01.850Z,9.47
2017-09-21T07:24:28.386Z,9.60
2017-09-21T07:26:54.822Z,9.60
2017-09-21T07:29:21.182Z,10.50
2017-09-21T07:31:47.543Z,12.60
2017-09-21T07:34:14.022Z,10.73
2017-09-21T07:36:40.560Z,9.90
2017-09-21T07:39:06.998Z,9.23
2017-09-21T07:41:33.426Z,16.20
2017-09-21T07:43:59.866Z,14.77
2017-09-21T07:46:26.301Z,9.43
2017-09-21T07:48:52.737Z,10.77
2017-09-21T07:51:19.171Z,9.50
2017-09-21T07:53:45.655Z,9.00
2017-09-21T07:56:12.130Z,9.90
2017-09-21T07:58:38.578Z,9.90
2017-09-21T08:01:05.953Z,11.13
2017-09-21T08:03:32.472Z,8.33
2017-09-21T08:05:58.906Z,17.30
2017-09-21T08:08:26.058Z,8.63
2017-09-21T08:10:52.595Z,8.20
2017-09-21T08:13:19.134Z,9.03
2017-09-21T08:15:45.965Z,8.37
2017-09-21T08:18:12.413Z,11.40
2017-09-21T08:20:38.847Z,17.40
2017-09-21T08:23:05.486Z,9.27
2017-09-21T08:25:31.921Z,8.23
2017-09-21T08:27:59.380Z,11.13
2017-09-21T08:30:25.816Z,8.60
2017-09-21T08:32:52.352Z,9.73
2017-09-21T08:35:19.095Z,8.73
2017-09-21T08:37:46.168Z,15.33
2017-09-21T08:40:12.580Z,8.90
2017-09-21T08:42:39.117Z,8.90
2017-09-21T08:45:05.859Z,8.63
2017-09-21T08:47:32.293Z,11.03
2017-09-21T08:49:58.733Z,9.00
2017-09-21T08:52:25.164Z,9.27
2017-09-21T08:54:51.599Z,7.80
2017-09-21T08:57:18.339Z,9.13
2017-09-21T08:59:44.779Z,9.20
2017-09-21T09:02:11.312Z,11.90
2017-09-21T09:04:37.748Z,9.33
2017-09-21T09:07:04.369Z,7.70
2017-09-21T09:09:30.821Z,8.60
2017-09-21T09:11:58.280Z,7.83
2017-09-21T09:14:24.818Z,7.83
2017-09-21T09:16:51.458Z,12.00
2017-09-21T09:19:17.892Z,8.20
2017-09-21T09:21:45.045Z,7.60
2017-09-21T09:24:11.586Z,7.53
2017-09-21T09:26:38.017Z,8.00
2017-09-21T09:29:04.861Z,8.30
2017-09-21T09:31:31.296Z,9.40
2017-09-21T09:33:57.834Z,11.10
2017-09-21T09:36:24.372Z,8.97
2017-09-21T09:38:50.810Z,8.63
2017-09-21T09:41:17.191Z,8.77
2017-09-21T09:43:43.881Z,13.63
2017-09-21T09:46:10.266Z,9.40
2017-09-21T09:48:36.744Z,8.13
2017-09-21T09:51:04.039Z,8.23
2017-09-21T09:53:31.667Z,8.90
2017-09-21T09:55:58.102Z,9.13
2017-09-21T09:58:26.753Z,10.50
2017-09-21T10:00:53.178Z,9.20
2017-09-21T10:03:19.966Z,8.67
2017-09-21T10:05:46.591Z,10.90
2017-09-21T10:08:13.034Z,8.90
2017-09-21T10:10:39.478Z,9.43
2017-09-21T10:13:06.015Z,9.30
2017-09-21T10:15:32.552Z,8.50
2017-09-21T10:17:59.293Z,8.73
2017-09-21T10:20:25.729Z,9.63
2017-09-21T10:22:53.289Z,9.10
2017-09-21T10:25:19.729Z,8.77
2017-09-21T10:27:46.251Z,12.13
2017-09-21T10:30:12.698Z,8.53
2017-09-21T10:32:39.183Z,10.27
2017-09-21T10:35:05.567Z,8.63
2017-09-21T10:37:32.002Z,8.47
2017-09-21T10:39:58.540Z,10.03
2017-09-21T10:42:24.976Z,8.30
2017-09-21T10:44:51.409Z,8.50
2017-09-21T10:47:18.051Z,26.20
2017-09-21T10:49:44.587Z,17.20
2017-09-21T10:52:11.020Z,14.67
2017-09-21T10:54:37.455Z,9.10
2017-09-21T10:57:04.524Z,7.53
2017-09-21T10:59:31.144Z,7.70
2017-09-21T11:01:57.580Z,7.63
2017-09-21T11:04:24.529Z,9.47
2017-09-21T11:06:51.065Z,8.17
2017-09-21T11:09:17.499Z,11.13
2017-09-21T11:11:44.504Z,8.77
2017-09-21T11:14:11.085Z,10.03
2017-09-21T11:16:37.520Z,13.13
2017-09-21T11:19:03.955Z,9.10
2017-09-21T11:21:31.166Z,8.70
2017-09-21T11:23:57.634Z,8.47
2017-09-21T11:26:24.078Z,8.23
2017-09-21T11:28:51.320Z,8.20
2017-09-21T11:31:18.486Z,10.80
2017-09-21T11:33:45.021Z,7.73
2017-09-21T11:36:11.463Z,7.80
2017-09-21T11:43:44.281Z,7.40
2017-09-21T11:46:10.713Z,8.10
2017-09-21T11:48:37.138Z,7.90
2017-09-21T11:51:03.582Z,7.60
2017-09-21T11:53:30.537Z,8.23
2017-09-21T11:55:57.065Z,7.70
2017-09-21T11:58:23.581Z,8.67
2017-09-21T12:00:50.145Z,6.80
2017-09-21T12:03:16.679Z,7.87
2017-09-21T12:05:43.114Z,7.33
2017-09-21T12:08:09.501Z,7.30
2017-09-21T12:10:35.984Z,6.60
2017-09-21T12:13:02.522Z,7.27
2017-09-21T12:15:29.129Z,6.87
2017-09-21T12:17:55.597Z,6.70
2017-09-21T12:20:22.542Z,7.17
2017-09-21T12:22:49.080Z,6.93
2017-09-21T12:25:15.720Z,7.13
2017-09-21T12:27:42.155Z,6.80
2017-09-21T12:30:08.694Z,6.67
2017-09-21T12:32:35.435Z,6.10
2017-09-21T12:35:01.870Z,5.57
2017-09-21T12:37:28.267Z,7.83
2017-09-21T12:39:55.047Z,5.67
2017-09-21T12:42:21.584Z,6.00
2017-09-21T12:44:48.119Z,6.67
2017-09-21T12:47:15.684Z,6.77
2017-09-21T12:49:42.219Z,5.83
2017-09-21T12:52:08.764Z,6.03
2017-09-21T12:54:35.396Z,9.30
2017-09-21T12:57:01.787Z,6.77
2017-09-21T12:59:28.251Z,6.23
2017-09-21T13:01:56.083Z,7.53
2017-09-21T13:04:23.901Z,6.33
2017-09-21T13:06:50.438Z,6.20
2017-09-21T13:09:17.079Z,8.33
2017-09-21T13:11:43.512Z,6.73
2017-09-21T13:14:10.153Z,9.43
2017-09-21T13:16:36.690Z,10.83
2017-09-21T13:19:03.184Z,5.80
2017-09-21T13:21:30.075Z,6.27
2017-09-21T13:23:57.164Z,11.23
2017-09-21T13:26:24.069Z,8.10
2017-09-21T13:28:50.818Z,13.00
2017-09-21T13:31:17.655Z,11.80
2017-09-21T13:33:44.191Z,11.47
2017-09-21T13:36:10.729Z,10.30
2017-09-21T13:38:37.470Z,12.40
2017-09-21T13:41:03.906Z,6.00
2017-09-21T13:43:30.392Z,14.40
2017-09-21T13:45:56.984Z,30.03
2017-09-21T13:48:23.414Z,13.43
2017-09-21T13:50:49.850Z,9.67
2017-09-21T13:53:17.124Z,7.97
2017-09-21T13:55:43.744Z,6.20
2017-09-21T13:58:10.282Z,10.90
2017-09-21T14:00:37.331Z,11.60
2017-09-21T14:03:03.974Z,7.17
2017-09-21T14:05:31.327Z,4.90
2017-09-21T14:07:58.171Z,4.50
2017-09-21T14:10:24.951Z,5.60
2017-09-21T14:12:51.555Z,5.77
2017-09-21T14:15:19.321Z,11.33
2017-09-21T14:17:46.137Z,5.70
2017-09-21T14:20:12.787Z,5.60
2017-09-21T14:22:39.955Z,8.67
2017-09-21T14:25:06.696Z,5.30
2017-09-21T14:27:33.391Z,6.60
2017-09-21T14:29:59.772Z,5.80
2017-09-21T14:32:26.449Z,7.60
2017-09-21T14:34:53.051Z,9.57
2017-09-21T14:37:19.691Z,5.40
2017-09-21T14:39:46.844Z,9.13
2017-09-21T14:42:13.671Z,5.57
2017-09-21T14:44:40.067Z,5.43
2017-09-21T14:47:06.657Z,6.53
2017-09-21T14:49:33.073Z,5.70
2017-09-21T14:51:59.527Z,5.83
2017-09-21T14:54:26.476Z,7.80
2017-09-21T14:56:52.910Z,6.13
2017-09-21T14:59:19.345Z,5.53
2017-09-21T15:01:46.292Z,9.50
2017-09-21T15:04:12.829Z,6.17
2017-09-21T15:06:39.264Z,6.00
2017-09-21T15:09:06.418Z,11.93
2017-09-21T15:11:32.864Z,9.40
2017-09-21T15:13:59.393Z,6.40
2017-09-21T15:16:25.856Z,6.50
2017-09-21T15:18:52.337Z,10.90
2017-09-21T15:21:18.797Z,8.00
2017-09-21T15:23:45.332Z,10.40
2017-09-21T15:26:12.382Z,6.33
2017-09-21T15:28:38.820Z,11.23
2017-09-21T15:31:05.255Z,11.20
2017-09-21T15:33:31.791Z,10.50
2017-09-21T15:35:58.231Z,12.00
2017-09-21T15:38:24.660Z,12.57
2017-09-21T15:40:51.158Z,11.30
2017-09-21T15:43:18.349Z,11.20
2017-09-21T15:45:44.783Z,17.70
2017-09-21T15:48:11.218Z,10.70
2017-09-21T15:50:37.653Z,10.40
2017-09-21T15:53:04.190Z,8.93
2017-09-21T15:55:30.630Z,8.97
2017-09-21T15:57:57.060Z,8.47
2017-09-21T16:00:24.165Z,9.10
2017-09-21T16:02:50.632Z,8.90
2017-09-21T16:05:17.074Z,9.90
2017-09-21T16:07:43.529Z,8.30
2017-09-21T16:10:09.952Z,8.60
2017-09-21T16:12:36.496Z,8.07
2017-09-21T16:15:02.927Z,8.60
2017-09-21T16:17:30.127Z,8.20
2017-09-21T16:19:56.612Z,7.50
2017-09-21T16:22:23.048Z,10.47
2017-09-21T16:24:49.485Z,8.00
2017-09-21T16:27:15.917Z,8.30
2017-09-21T16:29:42.351Z,7.30
2017-09-21T16:32:08.787Z,7.30
2017-09-21T16:34:36.041Z,18.70
2017-09-21T16:37:02.475Z,9.10
2017-09-21T16:39:28.911Z,8.10
2017-09-21T16:41:55.347Z,7.53
2017-09-21T16:44:21.781Z,7.23
2017-09-21T16:46:48.217Z,7.60
2017-09-21T16:49:14.651Z,8.00
2017-09-21T16:51:41.803Z,8.00
2017-09-21T16:54:08.345Z,8.17
2017-09-21T16:56:34.775Z,11.83
2017-09-21T16:59:01.186Z,8.10
2017-09-21T17:01:27.646Z,9.33
2017-09-21T17:03:54.489Z,8.93
2017-09-21T17:06:20.923Z,9.73
2017-09-21T17:08:47.358Z,15.60
2017-09-21T17:11:14.099Z,11.47
2017-09-21T17:13:40.536Z,11.50
2017-09-21T17:16:06.971Z,10.80
2017-09-21T17:18:33.405Z,13.23
2017-09-21T17:20:59.846Z,13.80
2017-09-21T17:23:26.689Z,11.47
2017-09-21T17:25:53.044Z,16.00
2017-09-21T17:28:19.452Z,12.70
2017-09-21T17:30:45.887Z,13.00
2017-09-21T17:33:12.425Z,9.40
2017-09-21T17:35:39.576Z,14.00
2017-09-21T17:38:06.011Z,11.67
2017-09-21T17:40:32.446Z,8.83
2017-09-21T17:42:58.983Z,12.60
2017-09-21T17:45:25.419Z,11.40
2017-09-21T17:47:51.936Z,22.00
2017-09-21T17:50:20.205Z,16.97
2017-09-21T17:52:46.771Z,19.20
2017-09-21T17:55:13.205Z,21.60
2017-09-21T17:57:39.743Z,24.80
2017-09-21T18:00:06.179Z,25.37
2017-09-21T18:02:32.716Z,24.90
2017-09-21T18:04:59.765Z,30.93
2017-09-21T18:07:26.199Z,27.97
2017-09-21T18:09:52.634Z,33.00
2017-09-21T18:12:19.377Z,35.17
2017-09-21T18:14:45.812Z,30.83
2017-09-21T18:17:12.247Z,32.53
2017-09-21T18:19:38.682Z,36.47
2017-09-21T18:22:05.074Z,36.10
2017-09-21T18:24:31.449Z,32.60
2017-09-21T18:26:57.883Z,33.80
2017-09-21T18:29:25.094Z,38.83
2017-09-21T18:31:51.470Z,37.07
2017-09-21T18:34:18.008Z,33.53
2017-09-21T18:36:44.442Z,36.33
2017-09-21T18:39:10.828Z,36.60
2017-09-21T18:41:37.311Z,34.80
2017-09-21T18:44:03.746Z,34.23
2017-09-21T18:46:30.900Z,35.03
2017-09-21T18:48:57.334Z,37.83
2017-09-21T18:51:23.768Z,33.80
2017-09-21T18:53:50.305Z,22.63
2017-09-21T18:56:16.741Z,19.03
2017-09-21T18:58:43.143Z,26.83
2017-09-21T19:01:09.611Z,13.90
2017-09-21T19:03:36.762Z,13.90
2017-09-21T19:06:03.196Z,12.90
2017-09-21T19:08:29.616Z,10.73
2017-09-21T19:10:56.067Z,10.57
2017-09-21T19:13:22.604Z,12.17
2017-09-21T19:15:49.039Z,10.57
2017-09-21T19:18:15.475Z,14.63
2017-09-21T19:20:42.625Z,24.27
2017-09-21T19:23:09.111Z,10.07
2017-09-21T19:25:35.495Z,7.73
2017-09-21T19:28:02.032Z,7.90
2017-09-21T19:30:28.467Z,8.47
2017-09-21T19:32:55.010Z,8.00
2017-09-21T19:35:21.440Z,7.90
2017-09-21T19:37:48.591Z,8.70
2017-09-21T19:40:15.027Z,8.90
2017-09-21T19:42:41.563Z,8.90
2017-09-21T19:45:07.998Z,10.10
2017-09-21T19:47:34.436Z,12.13
2017-09-21T19:50:00.873Z,12.10
2017-09-21T19:52:27.303Z,10.20
2017-09-21T19:54:54.456Z,11.00
2017-09-21T19:57:20.889Z,9.90
2017-09-21T19:59:47.271Z,8.77
2017-09-21T20:02:13.750Z,8.80
2017-09-21T20:04:40.144Z,7.80
2017-09-21T20:07:06.631Z,7.90
2017-09-21T20:09:33.016Z,8.43
2017-09-21T20:12:00.217Z,7.80
2017-09-21T20:14:28.291Z,7.63
2017-09-21T20:16:58.470Z,10.90
2017-09-21T20:19:25.099Z,10.07
2017-09-21T20:21:51.495Z,7.87
2017-09-21T20:24:18.025Z,6.77
2017-09-21T20:26:44.561Z,6.50
2017-09-21T20:29:10.948Z,7.40
2017-09-21T20:31:37.433Z,6.87
2017-09-21T20:34:03.968Z,6.27
2017-09-21T20:36:30.404Z,9.57
2017-09-21T20:38:56.838Z,6.87
2017-09-21T20:41:23.263Z,6.47
2017-09-21T20:43:49.713Z,7.30
2017-09-21T20:46:16.141Z,7.10
2017-09-21T20:48:42.577Z,6.93
2017-09-21T20:51:09.012Z,6.77
2017-09-21T20:53:35.548Z,7.13
2017-09-21T20:56:02.700Z,7.30
2017-09-21T20:58:29.071Z,7.20
2017-09-21T21:00:55.467Z,7.23
2017-09-21T21:03:22.004Z,7.27
2017-09-21T21:05:48.658Z,10.40
2017-09-21T21:08:15.028Z,8.63
2017-09-21T21:10:41.514Z,7.67
2017-09-21T21:13:08.670Z,6.10
2017-09-21T21:15:35.057Z,6.90
2017-09-21T21:18:01.536Z,12.13
2017-09-21T21:20:27.969Z,8.53
2017-09-21T21:22:54.508Z,7.30
2017-09-21T21:25:20.942Z,12.40
2017-09-21T21:27:47.377Z,7.73
2017-09-21T21:30:14.631Z,10.43
2017-09-21T21:32:41.170Z,7.90
2017-09-21T21:35:08.218Z,7.10
2017-09-21T21:37:34.653Z,8.00
2017-09-21T21:40:01.191Z,7.40
2017-09-21T21:42:27.625Z,7.90
2017-09-21T21:44:54.059Z,7.53
2017-09-21T21:47:21.212Z,10.40
2017-09-21T21:49:47.646Z,10.03
2017-09-21T21:52:14.081Z,9.97
2017-09-21T21:54:40.468Z,8.70
2017-09-21T21:57:06.948Z,9.77
2017-09-21T21:59:33.386Z,11.50
2017-09-21T22:01:59.822Z,8.00
2017-09-21T22:04:27.025Z,8.03
2017-09-21T22:06:53.407Z,7.60
2017-09-21T22:09:19.843Z,7.50
2017-09-21T22:11:46.377Z,8.70
2017-09-21T22:14:12.917Z,12.20
2017-09-21T22:16:39.354Z,8.93
2017-09-21T22:19:05.788Z,9.77
2017-09-21T22:21:32.991Z,8.50
2017-09-21T22:23:59.475Z,10.13
2017-09-21T22:26:25.910Z,8.37
2017-09-21T22:28:52.352Z,9.27
2017-09-21T22:31:18.782Z,9.17
2017-09-21T22:33:45.276Z,9.67
2017-09-21T22:36:11.651Z,13.50
2017-09-21T22:38:39.018Z,18.33
2017-09-21T22:41:05.442Z,9.83
2017-09-21T22:43:31.980Z,9.33
2017-09-21T22:45:58.414Z,9.53
2017-09-21T22:48:24.849Z,9.47
2017-09-21T22:50:51.284Z,9.73
2017-09-21T22:53:17.721Z,18.10
2017-09-21T22:55:44.871Z,20.47
2017-09-21T22:58:11.305Z,8.43
2017-09-21T23:00:37.740Z,14.83
2017-09-21T23:03:04.277Z,10.30
2017-09-21T23:05:30.711Z,9.80
2017-09-21T23:07:57.147Z,10.70
2017-09-21T23:10:23.582Z,10.10
2017-09-21T23:12:50.735Z,10.93
2017-09-21T23:15:17.170Z,10.70
2017-09-21T23:17:43.605Z,10.73
2017-09-21T23:20:10.038Z,9.70
2017-09-21T23:22:36.575Z,10.77
2017-09-21T23:25:03.011Z,11.87
2017-09-21T23:27:29.445Z,15.20
2017-09-21T23:29:56.699Z,15.10
2017-09-21T23:32:23.135Z,13.17
2017-09-21T23:34:49.570Z,21.00
2017-09-21T23:37:16.106Z,11.77
2017-09-21T23:39:42.542Z,12.10
2017-09-21T23:42:08.978Z,8.73
2017-09-21T23:44:35.513Z,11.07
2017-09-21T23:47:02.562Z,10.00
2017-09-21T23:49:28.998Z,11.67
2017-09-21T23:51:55.438Z,10.57
2017-09-21T23:54:21.960Z,10.80
2017-09-21T23:56:48.410Z,11.30
2017-09-21T23:59:14.842Z,10.23
